Погода Ростусана неделю

Скопье, Македония

14 - 20 июля
  • 14июля
    Сегодня
    +19°
    +40°
    Практически безоблачно
    ВремяПогодаТемператураВлажностьДавлениеВетер, м/сВероятность осадков
    02:00Ясно и безоблачно+22°C45 %737 мм0.5 м/с2 %
    05:00Ясно и безоблачно+20°C47 %738 мм0.7 м/с2 %
    08:00Ясно и безоблачно+27°C40 %739 мм0.0 м/с2 %
    11:00Ясно и безоблачно+34°C32 %738 мм0.8 м/с2 %
    14:00Практически безоблачно+39°C25 %737 мм1.6 м/с2 %
    17:00Небольшая облачность+40°C24 %737 мм3.1 м/с5 %
    20:00Практически безоблачно+34°C38 %737 мм3.2 м/с2 %
    23:00Ясно и безоблачно+27°C58 %737 мм0.9 м/с2 %
  • 15июля
    Понедельник
    +18°
    +42°
    Практически безоблачно
    ВремяПогодаТемператураВлажностьДавлениеВетер, м/сВероятность осадков
    02:00Ясно и безоблачно+23°C65 %737 мм0.5 м/с2 %
    05:00Ясно и безоблачно+20°C58 %738 мм0.6 м/с2 %
    08:00Ясно и безоблачно+28°C44 %739 мм0.1 м/с2 %
    11:00Ясно и безоблачно+35°C27 %739 мм1.4 м/с2 %
    14:00Практически безоблачно+41°C19 %738 мм3.3 м/с2 %
    17:00Практически безоблачно+41°C18 %737 мм5.2 м/с2 %
    20:00Ясно и безоблачно+34°C32 %737 мм3.5 м/с2 %
    23:00Ясно и безоблачно+26°C38 %738 мм0.8 м/с2 %
  • 16июля
    Вторник
    +20°
    +41°
    Ясно и безоблачно
    ВремяПогодаТемператураВлажностьДавлениеВетер, м/сВероятность осадков
    02:00Ясно и безоблачно+22°C48 %738 мм0.5 м/с2 %
    05:00Ясно и безоблачно+19°C43 %738 мм0.7 м/с2 %
    08:00Ясно и безоблачно+27°C39 %739 мм0.2 м/с2 %
    11:00Ясно и безоблачно+35°C23 %739 мм0.8 м/с2 %
    14:00Ясно и безоблачно+40°C13 %738 мм1.1 м/с2 %
    17:00Ясно и безоблачно+41°C13 %737 мм2.3 м/с2 %
    20:00Ясно и безоблачно+34°C21 %736 мм2.7 м/с2 %
    23:00Ясно и безоблачно+26°C26 %737 мм0.8 м/с2 %
  • 17июля
    Среда
    +20°
    +42°
    Ясно и безоблачно
    ВремяПогодаТемператураВлажностьДавлениеВетер, м/сВероятность осадков
    02:00Ясно и безоблачно+23°C35 %737 мм0.3 м/с2 %
    05:00Ясно и безоблачно+20°C37 %738 мм0.3 м/с2 %
    08:00Ясно и безоблачно+28°C34 %740 мм0.0 м/с2 %
    11:00Ясно и безоблачно+36°C24 %740 мм0.9 м/с2 %
    14:00Ясно и безоблачно+40°C17 %739 мм2.0 м/с2 %
    17:00Ясно и безоблачно+42°C16 %738 мм4.0 м/с2 %
    20:00Практически безоблачно+35°C26 %738 мм2.9 м/с2 %
    23:00Ясно и безоблачно+29°C34 %738 мм0.5 м/с2 %
  • 18июля
    Четверг
    +22°
    +42°
    Ясно и безоблачно
    ВремяПогодаТемператураВлажностьДавлениеВетер, м/сВероятность осадков
    02:00Ясно и безоблачно+24°C49 %739 мм0.7 м/с2 %
    05:00Ясно и безоблачно+22°C47 %739 мм0.6 м/с2 %
    08:00Практически безоблачно+29°C36 %741 мм0.2 м/с2 %
    11:00Ясно и безоблачно+36°C23 %740 мм1.0 м/с2 %
    14:00Ясно и безоблачно+41°C18 %739 мм2.3 м/с4 %
    17:00Практически безоблачно+42°C16 %738 мм4.9 м/с7 %
    20:00Практически безоблачно+35°C25 %738 мм2.8 м/с4 %
    23:00Ясно и безоблачно+29°C46 %738 мм1.0 м/с2 %
Мы используем cookies
Соглашаюсь